createdAt,value
2022-11-29T00:00:58.539Z,27.35
2022-11-29T00:04:01.527Z,27.08
2022-11-29T00:07:03.646Z,22.13
2022-11-29T00:10:06.357Z,26.80
2022-11-29T00:13:08.398Z,24.02
2022-11-29T00:16:12.419Z,28.88
2022-11-29T00:19:14.475Z,32.05
2022-11-29T00:22:16.541Z,26.15
2022-11-29T00:25:18.705Z,24.52
2022-11-29T00:28:20.841Z,25.42
2022-11-29T00:31:26.509Z,23.85
2022-11-29T00:34:29.031Z,27.52
2022-11-29T00:37:31.189Z,28.10
2022-11-29T00:40:33.184Z,26.83
2022-11-29T00:43:35.793Z,24.70
2022-11-29T00:46:38.286Z,28.75
2022-11-29T00:49:40.442Z,24.73
2022-11-29T00:52:42.419Z,30.00
2022-11-29T00:55:50.505Z,30.73
2022-11-29T00:58:52.603Z,29.90
2022-11-29T01:01:54.682Z,28.60
2022-11-29T01:04:56.682Z,33.47
2022-11-29T01:07:58.947Z,30.40
2022-11-29T01:11:25.582Z,24.45
2022-11-29T01:14:27.655Z,23.88
2022-11-29T01:17:34.748Z,34.50
2022-11-29T01:20:36.809Z,27.15
2022-11-29T01:23:39.455Z,28.33
2022-11-29T01:26:42.135Z,28.75
2022-11-29T01:29:45.147Z,31.25
2022-11-29T01:32:47.203Z,29.88
2022-11-29T01:35:54.451Z,31.20
2022-11-29T01:38:56.588Z,31.45
2022-11-29T01:42:00.201Z,30.02
2022-11-29T01:45:04.615Z,29.13
2022-11-29T01:48:06.754Z,27.70
2022-11-29T01:51:08.808Z,27.73
2022-11-29T01:54:12.490Z,31.08
2022-11-29T01:57:14.745Z,31.50
2022-11-29T02:00:18.734Z,30.70
2022-11-29T02:03:21.893Z,44.53
2022-11-29T02:06:24.389Z,27.83
2022-11-29T02:09:26.710Z,24.55
2022-11-29T02:12:52.889Z,26.67
2022-11-29T02:16:09.317Z,28.88
2022-11-29T02:19:43.959Z,24.88
2022-11-29T02:23:07.350Z,30.67
2022-11-29T02:26:12.288Z,26.25
2022-11-29T02:29:33.817Z,26.63
2022-11-29T02:32:44.785Z,26.73
2022-11-29T02:35:57.224Z,26.73
2022-11-29T02:39:24.503Z,28.45
2022-11-29T02:43:02.669Z,31.70
2022-11-29T02:46:49.845Z,28.73
2022-11-29T02:50:16.286Z,29.00
2022-11-29T02:53:35.590Z,29.02
2022-11-29T02:56:46.554Z,23.92
2022-11-29T03:00:05.239Z,24.63
2022-11-29T03:03:14.800Z,24.08
2022-11-29T03:06:26.164Z,23.65
2022-11-29T03:09:46.630Z,23.23
2022-11-29T03:12:53.129Z,28.27
2022-11-29T03:16:18.049Z,19.17
2022-11-29T03:19:57.200Z,22.85
2022-11-29T03:23:14.322Z,22.20
2022-11-29T03:26:24.930Z,19.90
2022-11-29T03:29:35.777Z,20.88
2022-11-29T03:32:55.858Z,24.58
2022-11-29T03:36:14.535Z,24.15
2022-11-29T03:39:30.345Z,20.00
2022-11-29T03:42:40.060Z,20.92
2022-11-29T03:45:49.475Z,20.60
2022-11-29T03:49:00.686Z,24.65
2022-11-29T03:52:21.589Z,22.17
2022-11-29T03:55:57.189Z,24.90
2022-11-29T03:59:24.761Z,23.02
2022-11-29T04:02:48.656Z,22.15
2022-11-29T04:05:50.632Z,23.42
2022-11-29T04:09:21.487Z,23.52
2022-11-29T04:12:49.148Z,24.05
2022-11-29T04:16:44.551Z,19.98
2022-11-29T04:20:10.732Z,20.55
2022-11-29T04:23:51.140Z,20.42
2022-11-29T04:27:23.977Z,19.58
2022-11-29T04:30:28.406Z,25.63
2022-11-29T04:34:04.169Z,23.13
2022-11-29T04:37:15.033Z,23.45
2022-11-29T04:40:44.557Z,20.45
2022-11-29T04:44:07.716Z,25.20
2022-11-29T04:47:52.668Z,26.17
2022-11-29T04:50:58.760Z,26.95
2022-11-29T04:54:35.705Z,22.20
2022-11-29T04:57:47.516Z,22.58
2022-11-29T05:01:19.225Z,24.95
2022-11-29T05:04:36.674Z,22.92
2022-11-29T05:08:07.624Z,23.60
2022-11-29T05:11:09.888Z,21.90
2022-11-29T05:14:56.592Z,19.80
2022-11-29T05:18:43.324Z,23.95
2022-11-29T05:22:11.843Z,19.25
2022-11-29T05:25:31.703Z,20.88
2022-11-29T05:28:54.221Z,25.85
2022-11-29T05:32:21.804Z,21.95
2022-11-29T05:35:40.582Z,21.85
2022-11-29T05:39:01.947Z,21.50
2022-11-29T05:42:21.967Z,20.13
2022-11-29T05:45:31.094Z,20.63
2022-11-29T05:49:01.246Z,20.83
2022-11-29T05:52:25.199Z,24.77
2022-11-29T05:55:30.051Z,17.90
2022-11-29T05:58:58.639Z,24.30
2022-11-29T06:02:09.982Z,22.85
2022-11-29T06:05:33.911Z,21.30
2022-11-29T06:08:58.698Z,22.40
2022-11-29T06:12:06.956Z,21.63
2022-11-29T06:15:19.690Z,18.13
2022-11-29T06:18:46.354Z,13.40
2022-11-29T06:22:07.272Z,16.30
2022-11-29T06:25:39.498Z,15.48
2022-11-29T06:29:18.638Z,19.85
2022-11-29T06:32:45.407Z,13.98
2022-11-29T06:36:07.961Z,19.20
2022-11-29T06:39:11.094Z,19.35
2022-11-29T06:42:13.366Z,25.02
2022-11-29T06:45:17.248Z,25.45
2022-11-29T06:48:26.336Z,25.40
2022-11-29T06:52:02.366Z,20.88
2022-11-29T06:55:22.979Z,23.15
2022-11-29T06:58:52.273Z,23.45
2022-11-29T07:02:20.505Z,22.45
2022-11-29T07:05:33.690Z,23.48
2022-11-29T07:08:35.924Z,23.23
2022-11-29T07:11:38.453Z,19.85
2022-11-29T07:14:40.899Z,23.48
2022-11-29T07:18:30.316Z,20.58
2022-11-29T07:21:44.244Z,22.45
2022-11-29T07:25:02.164Z,22.88
2022-11-29T07:28:27.361Z,23.45
2022-11-29T07:31:51.262Z,23.38
2022-11-29T07:35:35.288Z,20.98
2022-11-29T07:39:05.509Z,25.05
2022-11-29T07:42:10.522Z,22.08
2022-11-29T07:45:23.896Z,24.13
2022-11-29T07:48:27.086Z,20.73
2022-11-29T07:51:29.459Z,27.27
2022-11-29T07:54:31.689Z,27.10
2022-11-29T07:57:36.755Z,23.58
2022-11-29T08:00:39.875Z,21.65
2022-11-29T08:03:43.331Z,25.35
2022-11-29T08:06:45.391Z,24.25
2022-11-29T08:09:47.600Z,17.88
2022-11-29T08:12:51.158Z,25.70
2022-11-29T08:15:53.294Z,22.95
2022-11-29T08:18:55.544Z,20.67
2022-11-29T08:21:57.760Z,20.17
2022-11-29T08:25:00.287Z,18.10
2022-11-29T08:28:03.991Z,19.73
2022-11-29T08:31:08.268Z,15.38
2022-11-29T08:34:10.951Z,19.73
2022-11-29T08:37:12.991Z,17.27
2022-11-29T08:40:16.073Z,16.20
2022-11-29T08:43:18.056Z,15.98
2022-11-29T08:46:20.801Z,17.02
2022-11-29T08:49:23.245Z,15.13
2022-11-29T08:52:46.950Z,11.55
2022-11-29T08:55:50.717Z,13.27
2022-11-29T08:58:54.193Z,16.95
2022-11-29T09:01:56.350Z,14.52
2022-11-29T09:04:58.369Z,16.33
2022-11-29T09:08:00.626Z,15.02
2022-11-29T09:11:15.614Z,20.27
2022-11-29T09:14:18.344Z,17.38
2022-11-29T09:17:20.617Z,16.33
2022-11-29T09:20:22.731Z,14.15
2022-11-29T09:23:25.467Z,13.93
2022-11-29T09:26:32.231Z,16.02
2022-11-29T09:29:34.273Z,16.50
2022-11-29T09:32:36.420Z,18.70
2022-11-29T09:35:38.511Z,21.27
2022-11-29T09:38:40.900Z,22.95
2022-11-29T09:41:57.312Z,17.17
2022-11-29T09:45:07.733Z,18.30
2022-11-29T09:48:15.911Z,20.90
2022-11-29T09:51:28.150Z,21.02
2022-11-29T09:54:41.784Z,17.02
2022-11-29T09:57:45.004Z,17.55
2022-11-29T10:01:03.776Z,13.30
2022-11-29T10:04:12.582Z,17.80
2022-11-29T10:07:22.650Z,13.18
2022-11-29T10:10:40.980Z,15.60
2022-11-29T10:13:49.085Z,18.50
2022-11-29T10:17:06.396Z,18.73
2022-11-29T10:20:19.074Z,18.70
2022-11-29T10:23:44.457Z,22.40
2022-11-29T10:26:46.912Z,19.70
2022-11-29T10:29:51.290Z,21.55
2022-11-29T10:33:02.811Z,16.83
2022-11-29T10:36:29.134Z,17.98
2022-11-29T10:39:46.228Z,19.40
2022-11-29T10:42:55.408Z,20.02
2022-11-29T10:45:58.937Z,19.02
2022-11-29T10:49:13.461Z,15.15
2022-11-29T10:52:22.227Z,18.17
2022-11-29T10:55:26.405Z,18.38
2022-11-29T10:58:31.263Z,13.65
2022-11-29T11:01:38.696Z,16.13
2022-11-29T11:04:47.061Z,12.63
2022-11-29T11:07:57.869Z,18.13
2022-11-29T11:11:02.185Z,18.05
2022-11-29T11:14:18.393Z,16.50
2022-11-29T11:17:33.105Z,16.33
2022-11-29T11:20:38.277Z,14.75
2022-11-29T11:23:58.188Z,15.75
2022-11-29T11:27:01.250Z,14.18
2022-11-29T11:30:07.203Z,17.08
2022-11-29T11:33:22.185Z,23.90
2022-11-29T11:36:28.033Z,15.65
2022-11-29T11:39:30.236Z,14.70
2022-11-29T11:42:38.555Z,16.05
2022-11-29T11:45:40.570Z,19.98
2022-11-29T11:48:42.692Z,19.25
2022-11-29T11:51:44.748Z,13.73
2022-11-29T11:55:00.559Z,17.58
2022-11-29T11:58:12.454Z,12.85
2022-11-29T12:01:24.754Z,15.88
2022-11-29T12:04:38.140Z,17.85
2022-11-29T12:08:11.065Z,22.13
2022-11-29T12:11:17.733Z,13.18
2022-11-29T12:14:48.591Z,14.13
2022-11-29T12:18:00.539Z,14.80
2022-11-29T12:21:18.103Z,38.33
2022-11-29T12:24:29.482Z,15.25
2022-11-29T12:27:32.140Z,14.00
2022-11-29T12:30:34.698Z,14.57
2022-11-29T12:34:10.206Z,13.55
2022-11-29T12:37:38.219Z,12.18
2022-11-29T12:41:17.737Z,18.70
2022-11-29T12:44:53.908Z,31.98
2022-11-29T12:48:18.901Z,8.75
2022-11-29T12:51:21.003Z,12.45
2022-11-29T12:54:46.377Z,12.07
2022-11-29T12:57:52.931Z,10.80
2022-11-29T13:01:21.959Z,13.35
2022-11-29T13:04:59.751Z,13.88
2022-11-29T13:08:37.579Z,10.25
2022-11-29T13:12:02.123Z,13.27
2022-11-29T13:15:17.806Z,17.50
2022-11-29T13:18:35.695Z,8.95
2022-11-29T13:21:44.055Z,11.75
2022-11-29T13:28:03.327Z,17.63
2022-11-29T13:31:09.758Z,10.60
2022-11-29T13:34:26.886Z,8.13
2022-11-29T13:37:47.456Z,10.30
2022-11-29T13:41:28.101Z,9.90
2022-11-29T13:44:37.201Z,9.73
2022-11-29T13:47:49.686Z,13.80
2022-11-29T13:50:51.826Z,12.70
2022-11-29T13:53:58.053Z,11.13
2022-11-29T13:57:08.765Z,12.13
2022-11-29T14:00:33.869Z,10.68
2022-11-29T14:03:39.720Z,10.90
2022-11-29T14:06:41.789Z,14.80
2022-11-29T14:09:49.698Z,13.50
2022-11-29T14:12:56.977Z,10.93
2022-11-29T14:16:03.550Z,10.98
2022-11-29T14:19:08.449Z,10.63
2022-11-29T14:22:13.339Z,8.38
2022-11-29T14:28:48.408Z,10.30
2022-11-29T14:31:52.148Z,9.95
2022-11-29T14:35:12.443Z,7.88
2022-11-29T14:38:38.368Z,9.05
2022-11-29T14:42:01.345Z,10.23
2022-11-29T14:45:06.498Z,10.50
2022-11-29T14:48:32.136Z,17.88
2022-11-29T14:51:35.313Z,10.80
2022-11-29T14:54:54.386Z,7.25
2022-11-29T14:58:19.156Z,12.02
2022-11-29T15:01:21.341Z,8.88
2022-11-29T15:04:29.024Z,10.13
2022-11-29T15:07:32.946Z,12.53
2022-11-29T15:10:41.017Z,8.95
2022-11-29T15:13:56.017Z,13.73
2022-11-29T15:21:03.662Z,10.45
2022-11-29T15:24:51.307Z,20.40
2022-11-29T15:27:55.721Z,15.93
2022-11-29T15:31:23.153Z,11.73
2022-11-29T15:34:41.905Z,11.48
2022-11-29T15:41:47.985Z,12.18
2022-11-29T15:44:53.537Z,11.45
2022-11-29T15:48:26.072Z,14.98
2022-11-29T15:51:36.422Z,15.43
2022-11-29T15:54:48.113Z,22.23
2022-11-29T15:57:56.091Z,9.38
2022-11-29T16:01:02.063Z,22.08
2022-11-29T16:04:04.941Z,12.65
2022-11-29T16:07:11.219Z,16.15
2022-11-29T16:10:21.618Z,12.23
2022-11-29T16:13:34.927Z,13.90
2022-11-29T16:16:38.966Z,17.58
2022-11-29T16:19:43.608Z,19.10
2022-11-29T16:22:47.578Z,16.60
2022-11-29T16:26:07.258Z,16.45
2022-11-29T16:29:41.753Z,20.73
2022-11-29T16:32:53.230Z,18.50
2022-11-29T16:36:28.067Z,11.75
2022-11-29T16:39:35.396Z,13.00
2022-11-29T16:42:38.990Z,13.07
2022-11-29T16:45:43.040Z,14.07
2022-11-29T16:48:45.124Z,8.95
2022-11-29T16:51:48.810Z,14.57
2022-11-29T16:54:52.407Z,16.58
2022-11-29T16:57:56.114Z,8.40
2022-11-29T17:00:59.227Z,12.32
2022-11-29T17:04:02.248Z,14.77
2022-11-29T17:07:11.077Z,7.28
2022-11-29T17:10:19.767Z,5.20
2022-11-29T17:13:21.971Z,30.38
2022-11-29T17:16:25.868Z,8.60
2022-11-29T17:19:29.852Z,9.55
2022-11-29T17:22:37.817Z,21.73
2022-11-29T17:29:05.696Z,8.38
2022-11-29T17:32:07.816Z,16.90
2022-11-29T17:35:35.154Z,14.73
2022-11-29T17:38:37.356Z,9.98
2022-11-29T17:41:39.356Z,10.48
2022-11-29T17:44:42.661Z,9.02
2022-11-29T17:47:44.721Z,8.93
2022-11-29T17:50:52.288Z,16.40
2022-11-29T17:54:00.140Z,9.38
2022-11-29T17:57:05.035Z,18.08
2022-11-29T18:00:09.048Z,14.30
2022-11-29T18:03:15.797Z,13.68
2022-11-29T18:06:43.592Z,11.00
2022-11-29T18:09:59.070Z,8.52
2022-11-29T18:13:01.171Z,16.13
2022-11-29T18:16:18.978Z,9.68
2022-11-29T18:19:25.752Z,11.50
2022-11-29T18:22:30.632Z,12.77
2022-11-29T18:25:40.312Z,15.32
2022-11-29T18:28:46.890Z,18.30
2022-11-29T18:31:55.961Z,19.90
2022-11-29T18:35:00.172Z,14.95
2022-11-29T18:38:18.899Z,16.05
2022-11-29T18:41:28.447Z,18.58
2022-11-29T18:44:32.611Z,19.33
2022-11-29T18:47:37.763Z,19.58
2022-11-29T18:50:39.996Z,21.77
2022-11-29T18:53:43.228Z,13.50
2022-11-29T18:56:47.154Z,14.27
2022-11-29T18:59:50.559Z,19.45
2022-11-29T19:02:54.032Z,24.70
2022-11-29T19:05:58.943Z,18.88
2022-11-29T19:09:01.485Z,15.00
2022-11-29T19:12:05.402Z,16.27
2022-11-29T19:15:09.211Z,19.70
2022-11-29T19:18:11.234Z,17.77
2022-11-29T19:21:18.102Z,25.48
2022-11-29T19:24:20.943Z,19.45
2022-11-29T19:27:50.378Z,27.75
2022-11-29T19:30:56.216Z,14.13
2022-11-29T19:34:01.181Z,14.93
2022-11-29T19:37:04.212Z,16.73
2022-11-29T19:40:11.185Z,21.38
2022-11-29T19:43:13.296Z,13.93
2022-11-29T19:46:20.908Z,16.23
2022-11-29T19:49:23.091Z,15.10
2022-11-29T19:52:25.701Z,23.17
2022-11-29T19:55:27.747Z,17.30
2022-11-29T19:58:30.223Z,17.98
2022-11-29T20:01:40.291Z,14.07
2022-11-29T20:04:54.593Z,13.15
2022-11-29T20:07:56.707Z,14.23
2022-11-29T20:11:18.499Z,19.88
2022-11-29T20:14:20.846Z,15.73
2022-11-29T20:17:22.930Z,13.50
2022-11-29T20:20:29.708Z,15.68
2022-11-29T20:23:33.583Z,16.15
2022-11-29T20:26:42.185Z,14.57
2022-11-29T20:29:44.675Z,21.23
2022-11-29T20:32:47.096Z,16.80
2022-11-29T20:36:13.058Z,15.27
2022-11-29T20:39:52.300Z,15.60
2022-11-29T20:43:20.647Z,15.32
2022-11-29T20:46:28.209Z,16.67
2022-11-29T20:49:32.586Z,15.07
2022-11-29T20:52:51.813Z,12.43
2022-11-29T20:55:55.443Z,18.57
2022-11-29T20:58:57.513Z,16.35
2022-11-29T21:02:01.508Z,14.35
2022-11-29T21:05:04.333Z,17.45
2022-11-29T21:08:07.775Z,13.27
2022-11-29T21:11:13.686Z,15.93
2022-11-29T21:14:18.557Z,14.75
2022-11-29T21:17:20.844Z,17.27
2022-11-29T21:20:26.105Z,22.13
2022-11-29T21:23:57.389Z,19.10
2022-11-29T21:26:59.832Z,21.30
2022-11-29T21:30:05.581Z,15.15
2022-11-29T21:33:08.332Z,14.65
2022-11-29T21:36:13.318Z,22.08
2022-11-29T21:39:16.728Z,18.42
2022-11-29T21:42:18.841Z,19.30
2022-11-29T21:45:20.985Z,18.55
2022-11-29T21:48:35.217Z,20.48
2022-11-29T21:51:38.292Z,21.05
2022-11-29T21:54:40.517Z,21.38
2022-11-29T21:57:42.587Z,22.92
2022-11-29T22:00:45.724Z,22.05
2022-11-29T22:03:48.305Z,26.67
2022-11-29T22:06:50.528Z,22.35
2022-11-29T22:09:52.976Z,25.58
2022-11-29T22:12:55.494Z,27.65
2022-11-29T22:16:08.811Z,24.50
2022-11-29T22:19:12.607Z,26.33
2022-11-29T22:22:14.757Z,25.98
2022-11-29T22:25:16.698Z,26.98
2022-11-29T22:28:18.854Z,24.52
2022-11-29T22:31:20.906Z,28.15
2022-11-29T22:34:25.336Z,22.65
2022-11-29T22:37:28.289Z,29.38
2022-11-29T22:40:30.440Z,22.70
2022-11-29T22:43:36.275Z,31.77
2022-11-29T22:46:41.120Z,27.02
2022-11-29T22:49:44.712Z,26.75
2022-11-29T22:52:46.838Z,26.25
2022-11-29T22:55:49.158Z,31.67
2022-11-29T22:58:51.461Z,23.17
2022-11-29T23:01:53.567Z,23.20
2022-11-29T23:04:55.629Z,28.13
2022-11-29T23:07:58.550Z,31.52
2022-11-29T23:11:04.433Z,26.15
2022-11-29T23:14:06.488Z,28.80
2022-11-29T23:17:08.571Z,27.83
2022-11-29T23:20:11.070Z,32.97
2022-11-29T23:23:13.249Z,24.77
2022-11-29T23:26:30.514Z,27.58
2022-11-29T23:29:32.629Z,32.10
2022-11-29T23:32:34.899Z,26.65
2022-11-29T23:35:37.129Z,27.50
2022-11-29T23:38:39.253Z,34.00
2022-11-29T23:41:41.371Z,29.95
2022-11-29T23:44:45.215Z,27.80
2022-11-29T23:47:48.849Z,25.63
2022-11-29T23:50:51.337Z,27.15
2022-11-29T23:53:54.279Z,24.15
2022-11-29T23:56:56.389Z,27.45
2022-11-29T23:59:59.058Z,25.15
